Time;durP1;ratioP1;P1;durP2;ratioP2;P2;SDS_P1;SDS_P2;PMS_P1;PMS_P2;Temp;Humidity;BMP_temperature;BMP_pressure;BME280_temperature;BME280_humidity;BME280_pressure;Samples;Min_cycle;Max_cycle;Signal;HPM_P1;HPM_P2
2022/07/24 00:00:47;;;;;;;;;17.67;17.33;;;;;22.55;70.34;101239.59;4947062;28;45367;-86
2022/07/24 00:03:12;;;;;;;;;19.67;18.00;;;;;22.54;70.72;101256.81;4949642;28;45409;-82
2022/07/24 00:05:37;;;;;;;;;20.00;20.00;;;;;22.51;70.39;101258.69;4962770;28;46994;-83
2022/07/24 00:08:03;;;;;;;;;19.00;17.67;;;;;22.49;69.81;101261.44;4948660;28;45562;-82
2022/07/24 00:10:30;;;;;;;;;17.33;17.33;;;;;22.50;71.33;101257.81;4942878;28;44779;-83
2022/07/24 00:12:56;;;;;;;;;18.33;18.33;;;;;22.46;70.09;101258.84;4948644;28;45412;-82
2022/07/24 00:15:21;;;;;;;;;17.67;17.00;;;;;22.46;70.29;101260.63;4959172;28;47064;-82
2022/07/24 00:17:47;;;;;;;;;20.67;20.67;;;;;22.41;70.67;101252.63;4966227;28;45543;-83
2022/07/24 00:20:12;;;;;;;;;23.33;21.33;;;;;22.35;72.35;101245.56;4969149;28;45360;-82
2022/07/24 00:22:38;;;;;;;;;18.33;16.67;;;;;22.34;73.12;101254.63;4968611;28;45452;-82
2022/07/24 00:25:04;;;;;;;;;23.33;19.33;;;;;22.33;72.30;101252.84;4969131;28;45818;-83
2022/07/24 00:27:30;;;;;;;;;23.33;23.33;;;;;22.30;72.48;101246.59;4952016;28;45409;-82
2022/07/24 00:29:55;;;;;;;;;20.00;19.00;;;;;22.25;74.34;101240.44;4951385;28;45449;-82
2022/07/24 00:32:20;;;;;;;;;19.33;17.33;;;;;22.18;74.26;101229.72;4952421;28;44833;-81
2022/07/24 00:34:47;;;;;;;;;19.67;17.00;;;;;22.12;73.87;101212.75;4967447;28;46151;-83
2022/07/24 00:37:13;;;;;;;;;17.67;17.67;;;;;22.09;74.28;101202.84;4968508;28;44724;-83
2022/07/24 00:39:38;;;;;;;;;21.67;21.67;;;;;22.14;73.74;101219.91;4966643;28;45318;-83
2022/07/24 00:42:04;;;;;;;;;20.00;19.00;;;;;22.10;73.37;101211.91;4967255;28;45312;-83
2022/07/24 00:44:29;;;;;;;;;23.33;22.00;;;;;22.06;73.24;101208.38;4966659;28;45353;-83
2022/07/24 00:46:54;;;;;;;;;21.00;21.00;;;;;22.10;74.06;101215.50;4965556;28;45433;-83
2022/07/24 00:49:20;;;;;;;;;19.33;17.67;;;;;22.08;75.43;101220.06;4979953;28;45124;-84
2022/07/24 00:55:08;;;;;;;;;19.00;18.67;;;;;22.04;73.00;101215.66;4964726;28;45349;-84
2022/07/24 00:57:34;;;;;;;;;18.00;18.00;;;;;22.02;73.29;101201.25;4965339;28;45412;-83
2022/07/24 00:59:59;;;;;;;;;18.67;18.67;;;;;21.96;74.05;101201.41;4966207;28;45379;-84
2022/07/24 01:02:25;;;;;;;;;19.67;18.67;;;;;21.94;73.26;101197.84;4980324;28;45677;-82
2022/07/24 01:04:51;;;;;;;;;20.33;19.67;;;;;21.90;74.65;101197.03;4964462;28;47241;-82
2022/07/24 01:07:17;;;;;;;;;17.33;17.33;;;;;21.90;74.31;101201.56;4965582;28;45861;-82
2022/07/24 01:09:43;;;;;;;;;21.00;19.67;;;;;21.87;74.15;101209.75;4964106;28;45356;-81
2022/07/24 01:12:09;;;;;;;;;18.67;18.00;;;;;21.85;73.49;101203.50;4963951;28;45308;-83
2022/07/24 01:14:35;;;;;;;;;19.00;19.00;;;;;21.85;75.56;101214.31;4978406;28;47057;-82
2022/07/24 01:17:00;;;;;;;;;15.33;14.00;;;;;21.77;73.36;101199.19;4965169;28;45975;-82
2022/07/24 01:19:26;;;;;;;;;20.33;18.00;;;;;21.82;73.95;101218.00;4967384;28;45337;-81
2022/07/24 01:21:53;;;;;;;;;20.33;19.33;;;;;21.83;73.97;101213.47;4965417;28;45409;-82
2022/07/24 01:24:19;;;;;;;;;19.33;18.67;;;;;21.85;74.30;101208.91;4965198;28;45038;-83
2022/07/24 01:26:46;;;;;;;;;18.00;17.00;;;;;21.81;74.68;101201.81;4980691;28;45713;-82
2022/07/24 01:29:11;;;;;;;;;22.33;20.33;;;;;21.78;73.62;101203.66;4980520;28;45377;-83
2022/07/24 01:32:17;;;;;;;;;20.00;20.00;;;;;21.83;74.52;101213.47;4965736;28;45413;-83
2022/07/24 01:34:43;;;;;;;;;20.00;19.00;;;;;21.77;76.19;101207.31;4964920;28;46868;-82
2022/07/24 01:37:09;;;;;;;;;24.67;23.00;;;;;21.74;76.00;101201.94;4957866;28;45708;-84
2022/07/24 01:39:35;;;;;;;;;19.33;17.67;;;;;21.74;76.71;101206.50;4964058;28;44957;-82
2022/07/24 01:42:01;;;;;;;;;21.00;18.67;;;;;21.69;76.42;101203.91;4947709;28;45475;-84
2022/07/24 01:44:27;;;;;;;;;22.67;21.00;;;;;21.71;76.16;101212.88;4964728;28;47850;-82
2022/07/24 01:46:53;;;;;;;;;18.67;18.67;;;;;21.69;75.98;101205.69;4966193;28;45435;-83
2022/07/24 01:49:19;;;;;;;;;19.33;18.33;;;;;21.67;76.54;101200.34;4964305;28;45442;-83
2022/07/24 01:51:44;;;;;;;;;20.00;20.00;;;;;21.69;77.01;101203.91;4965906;28;45389;-84
2022/07/24 01:54:10;;;;;;;;;20.33;19.33;;;;;21.64;76.81;101195.00;4947475;28;48207;-83
2022/07/24 01:59:58;;;;;;;;;24.00;21.00;;;;;21.62;78.78;101196.84;4966798;28;45461;-83
2022/07/24 02:02:24;;;;;;;;;21.00;18.67;;;;;21.60;79.19;101195.13;4966543;28;45376;-81
2022/07/24 02:04:49;;;;;;;;;24.00;20.33;;;;;21.61;77.90;101203.16;4966122;28;45235;-84
2022/07/24 02:07:14;;;;;;;;;11.67;9.33;;;;;21.56;79.69;101192.47;4948800;28;45291;-83
2022/07/24 02:13:02;;;;;;;;;14.67;13.33;;;;;21.48;79.46;101174.66;4966963;28;45456;-82
2022/07/24 02:15:27;;;;;;;;;18.00;16.00;;;;;21.51;79.92;101178.16;4945745;28;47555;-83
2022/07/24 02:17:56;;;;;;;;;19.33;17.33;;;;;21.47;80.13;101173.75;4947282;28;45343;-84
2022/07/24 02:20:21;;;;;;;;;21.33;21.33;;;;;21.47;80.79;101179.19;4939687;28;45603;-82
2022/07/24 02:22:47;;;;;;;;;20.00;20.00;;;;;21.48;80.49;101171.94;4961576;28;45570;-84
2022/07/24 02:25:13;;;;;;;;;18.33;17.67;;;;;21.46;81.09;101169.25;4946306;28;46331;-84
2022/07/24 02:27:39;;;;;;;;;21.00;21.00;;;;;21.44;80.88;101165.69;4956337;28;45490;-83
2022/07/24 02:30:08;;;;;;;;;21.00;19.33;;;;;21.47;79.29;101170.13;4944594;28;45552;-81
2022/07/24 02:32:35;;;;;;;;;19.67;18.67;;;;;21.42;82.22;101175.63;4945530;28;45359;-83
2022/07/24 02:35:00;;;;;;;;;18.33;17.00;;;;;21.41;80.33;101163.06;4947654;28;46112;-82
2022/07/24 02:37:26;;;;;;;;;19.00;18.33;;;;;21.44;80.85;101170.22;4946439;28;44779;-83
2022/07/24 02:39:52;;;;;;;;;18.33;18.33;;;;;21.44;80.14;101164.81;4943368;28;45371;-82
2022/07/24 02:42:17;;;;;;;;;21.33;20.33;;;;;21.43;80.46;101163.03;4939035;28;45417;-81
2022/07/24 02:44:43;;;;;;;;;22.67;21.33;;;;;21.43;80.02;101163.03;4946966;28;45498;-82
2022/07/24 02:47:08;;;;;;;;;22.00;22.00;;;;;21.41;81.43;101159.44;4947305;28;44807;-82
2022/07/24 02:49:35;;;;;;;;;24.67;21.33;;;;;21.40;81.54;101150.44;4944295;28;45452;-83
2022/07/24 02:52:00;;;;;;;;;20.00;18.00;;;;;21.36;80.47;101152.31;4964365;28;45486;-83
2022/07/24 02:54:27;;;;;;;;;20.00;19.67;;;;;21.38;81.68;101152.28;4964903;28;48282;-83
2022/07/24 02:56:52;;;;;;;;;21.67;21.67;;;;;21.39;81.42;101145.97;4968318;28;45321;-83
2022/07/24 02:59:18;;;;;;;;;23.67;21.67;;;;;21.37;80.62;101142.41;4951052;28;45361;-82
2022/07/24 03:01:43;;;;;;;;;21.00;21.00;;;;;21.36;82.80;101144.19;4951012;28;45493;-82
2022/07/24 03:04:08;;;;;;;;;22.00;22.00;;;;;21.38;81.92;101146.88;4949022;28;46967;-82
2022/07/24 03:06:35;;;;;;;;;21.00;20.33;;;;;21.38;81.66;101136.06;4949964;28;45390;-83
2022/07/24 03:09:02;;;;;;;;;23.00;21.00;;;;;21.33;81.34;101132.56;4949312;28;45377;-84
2022/07/24 03:11:28;;;;;;;;;21.00;21.00;;;;;21.33;82.42;101135.25;4965266;28;45398;-83
2022/07/24 03:13:53;;;;;;;;;16.33;16.00;;;;;21.31;82.33;101132.63;4947796;28;47203;-83
2022/07/24 03:16:19;;;;;;;;;17.33;17.33;;;;;21.34;81.68;101137.94;4949918;28;45447;-83
2022/07/24 03:18:50;;;;;;;;;21.00;19.33;;;;;21.33;82.94;101138.88;4967338;28;45377;-82
2022/07/24 03:21:16;;;;;;;;;22.33;20.67;;;;;21.32;82.19;101145.19;4967427;28;45403;-83
2022/07/24 03:23:42;;;;;;;;;21.33;21.00;;;;;21.30;82.04;101141.66;4967532;28;45612;-82
2022/07/24 03:26:08;;;;;;;;;20.33;19.33;;;;;21.29;83.91;101141.66;4967417;28;45433;-82
2022/07/24 03:28:34;;;;;;;;;20.00;20.00;;;;;21.24;82.73;101138.22;4934023;28;45409;-81
2022/07/24 03:31:00;;;;;;;;;24.33;23.67;;;;;21.25;82.54;101142.66;4965767;28;45546;-82
2022/07/24 03:33:26;;;;;;;;;21.67;21.67;;;;;21.23;82.01;101139.13;4965774;28;47072;-82
2022/07/24 03:35:51;;;;;;;;;21.67;21.67;;;;;21.28;81.72;101132.69;4968268;28;45400;-82
2022/07/24 03:38:17;;;;;;;;;19.33;19.33;;;;;21.24;81.57;101136.38;4939686;28;45367;-82
2022/07/24 03:40:42;;;;;;;;;19.33;18.33;;;;;21.26;81.73;101139.94;4947884;28;45338;-82
2022/07/24 03:43:08;;;;;;;;;17.33;17.33;;;;;21.25;81.37;101132.78;4948602;28;45740;-82
2022/07/24 03:45:33;;;;;;;;;20.00;19.00;;;;;21.24;80.94;101136.38;4949075;28;45350;-83
2022/07/24 03:47:59;;;;;;;;;19.00;18.33;;;;;21.23;80.77;101129.22;4949270;28;45405;-82
2022/07/24 03:50:24;;;;;;;;;16.33;15.33;;;;;21.21;80.61;101130.16;4940608;28;45398;-82
2022/07/24 03:52:50;;;;;;;;;19.00;18.67;;;;;21.24;80.42;101136.38;4945173;28;46899;-83
2022/07/24 03:55:15;;;;;;;;;18.33;17.67;;;;;21.19;80.23;101127.50;4947701;28;45753;-82
2022/07/24 03:57:41;;;;;;;;;16.33;14.33;;;;;21.21;80.19;101132.84;4942748;28;45398;-83
2022/07/24 04:00:08;;;;;;;;;21.67;19.67;;;;;21.18;80.53;101125.72;4948332;28;45378;-83
2022/07/24 04:02:33;;;;;;;;;19.00;18.67;;;;;21.18;80.73;101134.72;4941749;28;47711;-82
2022/07/24 04:05:08;;;;;;;;;19.33;19.00;;;;;21.17;80.67;101145.59;4946408;28;44833;-83
2022/07/24 04:07:36;;;;;;;;;19.33;18.00;;;;;21.16;80.66;101138.38;4957634;28;45452;-82
2022/07/24 04:10:03;;;;;;;;;19.33;17.67;;;;;21.17;80.54;101145.59;4946330;28;45776;-83
2022/07/24 04:12:29;;;;;;;;;20.33;19.67;;;;;21.11;80.57;101141.22;4947517;28;45513;-82
2022/07/24 04:14:54;;;;;;;;;19.00;18.67;;;;;21.12;80.61;101142.97;4946722;28;45721;-82
2022/07/24 04:17:19;;;;;;;;;24.00;21.00;;;;;21.16;80.02;101146.50;4939252;28;46010;-82
2022/07/24 04:19:51;;;;;;;;;20.67;18.00;;;;;21.14;79.86;101140.22;4947632;28;45616;-83
2022/07/24 04:22:17;;;;;;;;;17.33;16.33;;;;;21.18;80.29;101150.94;4946776;28;45504;-83
2022/07/24 04:24:42;;;;;;;;;19.33;19.33;;;;;21.13;80.59;101139.34;4946213;28;45335;-81
2022/07/24 04:27:07;;;;;;;;;17.67;17.67;;;;;21.18;80.37;101141.94;4961113;28;45730;-82
2022/07/24 04:29:33;;;;;;;;;23.00;19.67;;;;;21.12;80.78;101136.69;4947246;28;45422;-82
2022/07/24 04:31:58;;;;;;;;;18.00;18.00;;;;;21.15;81.76;101142.03;4943995;28;46701;-82
2022/07/24 04:34:24;;;;;;;;;15.00;15.00;;;;;21.13;81.69;101138.47;4945768;28;45446;-83
2022/07/24 04:36:51;;;;;;;;;16.33;16.33;;;;;21.11;82.65;101135.78;4957989;28;45432;-84
2022/07/24 04:39:16;;;;;;;;;21.67;20.67;;;;;21.07;84.15;101130.50;4938379;28;45519;-83
2022/07/24 04:41:41;;;;;;;;;22.33;22.33;;;;;21.10;84.17;101127.72;4960205;28;47056;-84
2022/07/24 04:44:07;;;;;;;;;22.33;21.00;;;;;21.07;85.64;101127.78;4946508;28;45379;-81
2022/07/24 04:46:33;;;;;;;;;21.67;20.67;;;;;21.11;86.49;101137.63;4928468;28;45152;-83
2022/07/24 04:48:58;;;;;;;;;20.33;19.67;;;;;21.08;87.79;101134.97;4945378;28;44733;-83
2022/07/24 04:51:24;;;;;;;;;19.67;18.33;;;;;21.05;88.07;101133.22;4928593;28;46866;-81
2022/07/24 04:53:52;;;;;;;;;24.00;22.00;;;;;21.07;87.82;101133.22;4929241;28;45397;-82
2022/07/24 04:56:21;;;;;;;;;21.67;21.67;;;;;21.13;88.00;101135.75;4946701;28;44800;-82
2022/07/24 04:58:47;;;;;;;;;25.33;23.00;;;;;21.17;88.24;101140.19;4957415;28;45400;-82
2022/07/24 05:01:12;;;;;;;;;19.33;19.00;;;;;21.22;88.39;101130.13;4937034;28;47872;-82
2022/07/24 05:03:38;;;;;;;;;22.33;20.00;;;;;21.32;87.87;101133.50;4946298;28;45443;-83
2022/07/24 05:06:05;;;;;;;;;24.00;23.67;;;;;21.41;86.97;101132.38;4929447;28;45526;-83
2022/07/24 05:08:31;;;;;;;;;25.00;22.33;;;;;21.49;86.47;101135.81;4947675;28;45448;-82
2022/07/24 05:10:56;;;;;;;;;17.33;17.33;;;;;21.59;85.88;101140.06;4947133;28;45447;-82
2022/07/24 05:13:21;;;;;;;;;19.67;19.33;;;;;21.64;85.49;101124.63;4929057;28;45647;-81
2022/07/24 05:15:47;;;;;;;;;24.00;21.00;;;;;21.75;84.52;101138.78;4945985;28;45501;-83
2022/07/24 05:18:12;;;;;;;;;17.67;17.33;;;;;21.82;83.45;101130.50;4946815;28;45350;-82
2022/07/24 05:20:38;;;;;;;;;24.33;19.67;;;;;21.92;82.63;101124.78;4947317;28;45424;-82
2022/07/24 05:23:03;;;;;;;;;23.33;21.33;;;;;22.04;81.67;101139.81;4944535;28;45385;-82
2022/07/24 05:25:29;;;;;;;;;23.00;22.00;;;;;22.11;81.14;101130.56;4929580;28;45284;-81
2022/07/24 05:27:54;;;;;;;;;18.67;17.67;;;;;22.18;79.19;101137.59;4929728;28;45317;-82
2022/07/24 05:30:19;;;;;;;;;18.33;17.33;;;;;22.25;77.45;101135.63;4946081;28;45432;-83
2022/07/24 05:32:45;;;;;;;;;20.00;18.33;;;;;22.32;76.49;101141.78;4939824;28;45108;-82
2022/07/24 05:35:11;;;;;;;;;19.00;18.00;;;;;22.38;76.21;101138.91;4947791;28;45322;-83
2022/07/24 05:37:36;;;;;;;;;17.00;16.00;;;;;22.44;74.79;101136.03;4942885;28;45330;-84
2022/07/24 05:40:03;;;;;;;;;18.67;17.00;;;;;22.53;74.59;101134.84;4948217;28;48232;-82
2022/07/24 05:42:29;;;;;;;;;20.67;20.67;;;;;22.63;73.78;101135.47;4950696;28;45434;-82
2022/07/24 05:44:55;;;;;;;;;20.67;17.67;;;;;22.75;72.93;101143.25;4964056;28;45440;-83
2022/07/24 05:47:20;;;;;;;;;17.67;16.33;;;;;22.82;72.88;101139.38;4941694;28;45741;-82
2022/07/24 05:49:46;;;;;;;;;17.67;16.67;;;;;22.89;72.11;101129.25;4948949;28;47747;-82
2022/07/24 05:52:11;;;;;;;;;22.00;19.00;;;;;23.03;71.25;101143.31;4947996;28;45410;-82
2022/07/24 05:54:37;;;;;;;;;19.33;19.33;;;;;23.10;70.12;101133.16;4949621;28;45852;-83
2022/07/24 05:57:02;;;;;;;;;17.33;17.33;;;;;23.19;69.68;101137.38;4963100;28;45453;-83
2022/07/24 05:59:28;;;;;;;;;15.67;15.67;;;;;23.26;69.23;101137.16;4948484;28;45385;-83
2022/07/24 06:01:53;;;;;;;;;19.33;18.00;;;;;23.31;68.39;101132.47;4948939;28;45390;-82
2022/07/24 06:04:19;;;;;;;;;18.67;17.00;;;;;23.43;66.95;101135.69;4946419;28;45520;-83
2022/07/24 06:06:44;;;;;;;;;15.33;15.33;;;;;23.49;66.19;101135.50;4942526;28;45315;-83
2022/07/24 06:09:09;;;;;;;;;18.67;16.33;;;;;23.50;65.18;101118.28;4946279;28;47072;-83
2022/07/24 06:11:36;;;;;;;;;15.67;15.67;;;;;23.57;65.64;101119.84;4958366;28;45515;-83
2022/07/24 06:14:01;;;;;;;;;14.33;14.00;;;;;23.72;65.38;101130.19;4948273;28;45285;-82
2022/07/24 06:16:27;;;;;;;;;18.00;16.67;;;;;23.83;64.03;101128.94;4961121;28;45670;-83
2022/07/24 06:18:53;;;;;;;;;20.00;18.33;;;;;23.81;64.04;101114.53;4945600;28;46843;-83
2022/07/24 06:21:19;;;;;;;;;15.00;15.00;;;;;23.85;63.94;101116.22;4965653;28;45421;-82
2022/07/24 06:23:44;;;;;;;;;18.00;18.00;;;;;23.95;63.97;101117.66;4968089;28;45495;-83
2022/07/24 06:26:10;;;;;;;;;17.33;17.00;;;;;24.04;62.13;101116.47;4966329;28;44944;-84
2022/07/24 06:28:35;;;;;;;;;17.67;17.67;;;;;24.07;62.09;101124.47;4947777;28;46605;-82
2022/07/24 06:31:00;;;;;;;;;17.00;17.00;;;;;24.11;62.18;101124.31;4965080;28;45393;-83
2022/07/24 06:33:26;;;;;;;;;17.00;17.00;;;;;24.19;62.53;101120.44;4964985;28;45210;-82
2022/07/24 06:35:51;;;;;;;;;18.67;16.67;;;;;24.28;62.51;101103.78;4947345;28;45465;-84
2022/07/24 06:38:17;;;;;;;;;15.67;15.00;;;;;24.44;61.69;101115.88;4947828;28;47068;-83
2022/07/24 06:40:43;;;;;;;;;21.00;19.00;;;;;24.49;61.90;101108.41;4948187;28;45716;-83
2022/07/24 06:43:09;;;;;;;;;16.67;16.67;;;;;24.50;61.99;101114.75;4965415;28;45331;-83
2022/07/24 06:45:36;;;;;;;;;16.00;14.33;;;;;24.57;62.36;101115.44;4947775;28;45387;-82
2022/07/24 06:48:01;;;;;;;;;18.00;16.67;;;;;24.58;61.96;101106.31;4946944;28;46887;-83
2022/07/24 06:50:28;;;;;;;;;18.33;17.33;;;;;24.64;62.08;101114.25;4945843;28;45602;-83
2022/07/24 06:52:53;;;;;;;;;18.33;17.67;;;;;24.72;61.36;101113.03;4947182;28;45437;-83
2022/07/24 06:55:19;;;;;;;;;21.33;18.67;;;;;24.77;61.09;101111.94;4947966;28;45430;-85
2022/07/24 06:57:45;;;;;;;;;22.67;20.33;;;;;24.77;60.94;101107.38;4963343;28;47208;-83
2022/07/24 07:00:11;;;;;;;;;20.67;19.33;;;;;24.89;61.20;101114.19;4966132;28;45396;-83
2022/07/24 07:02:37;;;;;;;;;23.33;21.00;;;;;25.01;60.59;101115.53;4964501;28;45497;-84
2022/07/24 07:05:05;;;;;;;;;18.33;17.67;;;;;25.04;60.11;101108.09;4963721;28;45343;-83
2022/07/24 07:07:30;;;;;;;;;21.00;18.33;;;;;25.05;59.97;101106.28;4947776;28;47050;-84
2022/07/24 07:09:56;;;;;;;;;18.33;18.33;;;;;25.10;60.29;101109.69;4965098;28;45376;-82
2022/07/24 07:12:21;;;;;;;;;19.67;19.67;;;;;25.29;59.74;101104.44;4970004;28;45402;-84
2022/07/24 07:14:47;;;;;;;;;25.00;21.67;;;;;25.34;59.80;101103.28;4967462;28;45414;-86
2022/07/24 07:17:12;;;;;;;;;20.67;17.33;;;;;25.44;58.78;101111.06;4968389;28;45749;-84
2022/07/24 07:19:38;;;;;;;;;18.67;18.67;;;;;25.49;59.01;101117.19;4951508;28;45555;-83
2022/07/24 07:22:03;;;;;;;;;20.00;18.00;;;;;25.60;59.09;101111.31;4950888;28;45416;-83
2022/07/24 07:24:29;;;;;;;;;21.00;21.00;;;;;25.73;58.46;101112.53;4967501;28;45441;-84
2022/07/24 07:26:54;;;;;;;;;24.67;22.00;;;;;25.84;58.79;101106.63;4950481;28;48097;-83
2022/07/24 07:29:20;;;;;;;;;18.33;18.00;;;;;26.05;58.62;101102.09;4967641;28;45487;-84
2022/07/24 07:31:45;;;;;;;;;22.33;21.33;;;;;26.26;57.92;101103.88;4967614;28;45476;-84
2022/07/24 07:34:11;;;;;;;;;21.67;19.67;;;;;26.48;57.44;101106.50;4950595;28;45450;-82
2022/07/24 07:36:37;;;;;;;;;25.33;21.00;;;;;26.60;55.68;101104.16;4949487;28;46956;-84
2022/07/24 07:39:02;;;;;;;;;21.00;20.00;;;;;26.56;55.90;101103.38;4967403;28;45453;-83
2022/07/24 07:41:27;;;;;;;;;22.33;20.33;;;;;26.47;56.62;101091.06;4965736;28;45483;-83
2022/07/24 07:43:53;;;;;;;;;22.33;22.00;;;;;26.58;55.87;101097.88;4950714;28;45393;-83
2022/07/24 07:46:18;;;;;;;;;20.00;20.00;;;;;26.62;55.71;101094.97;4951591;28;48089;-83
2022/07/24 07:48:44;;;;;;;;;23.67;21.67;;;;;26.75;56.32;101100.72;4969134;28;45401;-84
2022/07/24 07:51:10;;;;;;;;;17.67;17.67;;;;;26.89;56.04;101092.75;4966835;28;45430;-82
2022/07/24 07:53:35;;;;;;;;;23.00;20.67;;;;;27.01;55.01;101095.84;4949819;28;45741;-83
2022/07/24 07:56:01;;;;;;;;;22.33;20.33;;;;;26.94;54.16;101087.97;4969546;28;45333;-82
2022/07/24 07:58:27;;;;;;;;;21.33;20.33;;;;;26.88;54.29;101093.69;4950612;28;45401;-84
2022/07/24 08:00:53;;;;;;;;;23.00;22.00;;;;;26.89;55.21;101098.19;4949185;28;45507;-82
2022/07/24 08:03:19;;;;;;;;;19.33;19.33;;;;;26.90;54.86;101088.16;4950484;28;45495;-84
2022/07/24 08:05:45;;;;;;;;;21.33;21.33;;;;;26.93;54.91;101082.56;4951469;28;47111;-82
2022/07/24 08:08:10;;;;;;;;;22.00;22.00;;;;;27.04;54.92;101090.22;4952552;28;44752;-84
2022/07/24 08:10:36;;;;;;;;;21.67;19.67;;;;;27.15;53.89;101074.19;4952096;28;45386;-83
2022/07/24 08:13:03;;;;;;;;;20.67;20.67;;;;;27.20;52.75;101077.56;4969755;28;45427;-84
2022/07/24 08:15:28;;;;;;;;;20.00;20.00;;;;;27.19;53.02;101084.00;4966442;28;45672;-84
2022/07/24 08:17:55;;;;;;;;;25.67;22.00;;;;;27.19;53.36;101086.75;4951095;28;45351;-83
2022/07/24 08:20:21;;;;;;;;;19.33;19.33;;;;;27.19;52.22;101084.00;4951494;28;45445;-84
2022/07/24 08:22:47;;;;;;;;;19.33;19.33;;;;;27.12;53.46;101079.81;4968084;28;45408;-84
2022/07/24 08:25:47;;;;;;;;;22.00;22.00;;;;;27.24;53.47;101089.25;4952111;28;47975;-82
2022/07/24 08:28:12;;;;;;;;;20.00;19.67;;;;;27.33;53.76;101076.03;4951335;28;45486;-82
2022/07/24 08:30:38;;;;;;;;;19.33;19.33;;;;;27.53;52.99;101085.03;4952584;28;44788;-84
2022/07/24 08:33:03;;;;;;;;;18.33;18.33;;;;;27.60;52.20;101083.78;4969803;28;45409;-83
2022/07/24 08:35:29;;;;;;;;;19.33;19.33;;;;;27.65;52.24;101083.53;4951294;28;47149;-83
2022/07/24 08:37:54;;;;;;;;;24.00;21.00;;;;;27.66;52.61;101072.53;4970911;28;45353;-82
2022/07/24 08:40:22;;;;;;;;;19.67;19.67;;;;;27.69;51.44;101075.13;4969224;28;45376;-83
2022/07/24 08:42:47;;;;;;;;;17.67;17.67;;;;;27.77;52.04;101071.06;4953081;28;44919;-83
2022/07/24 08:45:13;;;;;;;;;16.00;16.00;;;;;27.83;50.78;101068.00;4969703;28;46164;-83
2022/07/24 08:47:40;;;;;;;;;17.33;16.67;;;;;27.89;48.37;101074.06;4970483;28;44791;-83
2022/07/24 08:50:07;;;;;;;;;15.00;14.00;;;;;27.92;48.39;101059.38;4967738;28;45430;-84
2022/07/24 08:52:37;;;;;;;;;14.67;14.67;;;;;28.01;48.44;101060.72;4971355;28;45675;-83
2022/07/24 08:55:03;;;;;;;;;12.50;11.50;;;;;28.03;48.40;101054.19;4968670;28;45400;-83
2022/07/24 08:57:29;;;;;;;;;16.00;14.00;;;;;28.06;49.73;101056.78;4966462;28;45396;-82
2022/07/24 08:59:54;;;;;;;;;16.00;15.33;;;;;28.25;49.29;101058.50;4966927;28;45436;-83
2022/07/24 09:02:20;;;;;;;;;16.33;14.67;;;;;28.35;48.60;101054.28;4965371;28;45528;-84
2022/07/24 09:04:47;;;;;;;;;16.00;13.00;;;;;28.46;46.62;101048.22;4967986;28;45380;-85
2022/07/24 09:07:33;;;;;;;;;13.00;13.00;;;;;28.46;47.55;101040.00;4968059;28;45434;-84
2022/07/24 09:10:12;;;;;;;;;14.33;14.33;;;;;28.57;47.19;101039.44;4982739;28;45339;-85
2022/07/24 09:12:45;;;;;;;;;17.00;15.67;;;;;28.63;47.17;101031.75;4983752;28;45367;-84
2022/07/24 09:15:15;;;;;;;;;14.67;14.67;;;;;28.67;45.92;101029.75;4981149;28;45804;-84
2022/07/24 09:17:49;;;;;;;;;12.00;12.00;;;;;28.66;46.32;101038.91;4964773;28;45437;-86
2022/07/24 09:20:15;;;;;;;;;12.67;12.33;;;;;28.68;45.55;101028.75;4966895;28;45332;-85
2022/07/24 09:22:42;;;;;;;;;9.67;9.67;;;;;28.72;45.01;101025.78;4967108;28;45420;-83
2022/07/24 09:25:10;;;;;;;;;12.00;12.00;;;;;28.84;45.36;101034.25;4966078;28;45404;-84
2022/07/24 09:27:38;;;;;;;;;13.67;13.67;;;;;28.90;44.96;101023.84;4965137;28;45480;-82
2022/07/24 09:30:06;;;;;;;;;15.00;15.00;;;;;28.96;44.75;101018.94;4966503;28;45473;-83
2022/07/24 09:32:38;;;;;;;;;11.00;11.00;;;;;29.03;44.78;101012.16;4966842;28;45396;-83
2022/07/24 09:35:05;;;;;;;;;12.67;11.00;;;;;29.05;44.27;101005.59;4949858;28;45405;-83
2022/07/24 09:37:31;;;;;;;;;12.00;12.00;;;;;29.07;42.19;101002.78;4949798;28;45455;-84
2022/07/24 09:40:08;;;;;;;;;13.33;12.33;;;;;29.07;43.43;101005.53;4949726;28;45403;-83
2022/07/24 09:42:38;;;;;;;;;11.00;11.00;;;;;29.07;43.09;100997.31;4966552;28;45567;-84
2022/07/24 09:45:07;;;;;;;;;10.00;10.00;;;;;29.15;42.99;100996.88;4967569;28;45430;-82
2022/07/24 09:47:35;;;;;;;;;11.00;10.00;;;;;29.22;42.52;101001.00;4949875;28;45417;-84
2022/07/24 09:50:18;;;;;;;;;11.00;11.00;;;;;29.21;42.05;100989.19;4966755;28;45397;-83
2022/07/24 09:52:44;;;;;;;;;10.00;10.00;;;;;29.16;41.31;100996.78;4968525;28;45413;-84
2022/07/24 09:55:22;;;;;;;;;9.67;9.67;;;;;29.18;41.15;100992.09;4949579;28;47375;-84
2022/07/24 09:57:48;;;;;;;;;10.33;9.00;;;;;29.18;41.89;100992.09;4950571;28;45428;-84
2022/07/24 10:00:14;;;;;;;;;11.67;11.33;;;;;29.25;41.97;100982.53;4950614;28;45467;-83
2022/07/24 10:02:43;;;;;;;;;10.67;10.67;;;;;29.38;41.64;100990.00;4950321;28;45475;-83
2022/07/24 10:05:11;;;;;;;;;8.33;8.00;;;;;29.39;41.44;100980.81;4949134;28;47046;-84
2022/07/24 10:07:37;;;;;;;;;8.00;7.00;;;;;29.43;39.92;100974.16;4949736;28;45447;-82
2022/07/24 10:10:03;;;;;;;;;9.00;8.00;;;;;29.41;37.09;100973.38;4969291;28;45460;-83
2022/07/24 10:12:30;;;;;;;;;10.67;10.33;;;;;29.40;39.54;100988.06;4953502;28;45578;-83
2022/07/24 10:19:20;;;;;;;;;9.67;9.67;;;;;29.36;40.72;100978.28;4945219;28;45566;-84
2022/07/24 10:21:54;;;;;;;;;11.00;11.00;;;;;29.47;40.11;100983.94;4912382;28;44969;-84
2022/07/24 10:24:29;;;;;;;;;8.67;8.00;;;;;29.52;39.48;100985.44;4911383;28;45391;-83
2022/07/24 10:27:03;;;;;;;;;7.33;7.33;;;;;29.59;38.80;100975.00;4928466;28;45953;-84
2022/07/24 10:29:30;;;;;;;;;6.67;6.67;;;;;29.63;37.45;100979.31;4911173;28;45455;-83
2022/07/24 10:31:56;;;;;;;;;9.00;7.00;;;;;29.70;38.00;100975.19;4928497;28;45517;-83
2022/07/24 10:34:59;;;;;;;;;8.67;6.67;;;;;29.77;38.08;100980.31;4911991;28;45440;-83
2022/07/24 10:37:27;;;;;;;;;12.00;8.00;;;;;29.82;38.10;100969.97;4927549;28;45458;-83
2022/07/24 10:40:27;;;;;;;;;9.00;9.00;;;;;29.86;37.97;100958.69;4928195;28;44903;-83
2022/07/24 10:43:15;;;;;;;;;7.00;7.00;;;;;29.90;37.00;100967.63;4930371;28;45532;-83
2022/07/24 10:46:06;;;;;;;;;7.00;7.00;;;;;29.94;37.68;100958.22;4925242;28;45387;-84
2022/07/24 10:48:36;;;;;;;;;8.00;8.00;;;;;29.89;37.16;100952.13;4928511;28;47212;-84
2022/07/24 10:51:03;;;;;;;;;8.33;7.67;;;;;29.98;36.54;100957.03;4947604;28;45428;-83
2022/07/24 10:53:53;;;;;;;;;7.67;6.67;;;;;29.99;36.00;100958.78;4946881;28;45400;-83
2022/07/24 10:56:18;;;;;;;;;7.00;7.00;;;;;30.01;36.78;100959.56;4929010;28;45544;-84
2022/07/24 10:59:11;;;;;;;;;8.33;8.33;;;;;30.04;36.98;100953.91;4928468;28;46899;-83
2022/07/24 11:01:51;;;;;;;;;9.67;9.67;;;;;30.01;37.12;100945.00;4927749;28;44838;-84
2022/07/24 11:04:23;;;;;;;;;9.67;9.33;;;;;29.99;37.31;100942.34;4945823;28;44748;-83
2022/07/24 11:10:10;;;;;;;;;7.33;7.33;;;;;30.07;37.09;100923.53;4948628;28;45292;-84
2022/07/24 11:12:47;;;;;;;;;7.67;7.67;;;;;30.09;36.67;100921.56;4931337;28;45232;-84
2022/07/24 11:18:13;;;;;;;;;9.67;9.67;;;;;30.20;37.10;100909.03;4949575;28;44832;-83
2022/07/24 11:20:38;;;;;;;;;9.67;8.33;;;;;30.26;36.20;100922.34;4961918;28;45500;-83
2022/07/24 11:23:47;;;;;;;;;7.00;7.00;;;;;30.33;36.01;100914.63;4949613;28;45696;-83
2022/07/24 11:26:30;;;;;;;;;10.67;9.00;;;;;30.37;36.90;100918.91;4960983;28;45473;-83
2022/07/24 11:29:16;;;;;;;;;8.00;8.00;;;;;30.40;36.40;100911.38;4959149;28;45639;-84
2022/07/24 11:31:43;;;;;;;;;7.67;7.67;;;;;30.37;36.22;100907.94;4945321;28;45508;-83
2022/07/24 11:34:10;;;;;;;;;10.00;9.00;;;;;30.35;36.39;100899.81;4945869;28;45445;-83